sensor_id;sensor_type;location;lat;lon;timestamp;P1;durP1;ratioP1;P2;durP2;ratioP2
51852;SDS011;37894;53.172;6.598;2023-08-31T00:01:49;6.97;;;2.80;;
51852;SDS011;37894;53.172;6.598;2023-08-31T00:04:14;4.97;;;2.67;;
51852;SDS011;37894;53.172;6.598;2023-08-31T00:06:41;8.23;;;3.50;;
51852;SDS011;37894;53.172;6.598;2023-08-31T00:09:07;8.82;;;3.30;;
51852;SDS011;37894;53.172;6.598;2023-08-31T00:11:37;6.63;;;3.45;;
51852;SDS011;37894;53.172;6.598;2023-08-31T00:14:03;7.97;;;3.30;;
51852;SDS011;37894;53.172;6.598;2023-08-31T00:16:29;7.80;;;3.05;;
51852;SDS011;37894;53.172;6.598;2023-08-31T00:18:55;6.55;;;3.08;;
51852;SDS011;37894;53.172;6.598;2023-08-31T00:21:22;5.53;;;2.97;;
51852;SDS011;37894;53.172;6.598;2023-08-31T00:23:48;9.70;;;4.15;;
51852;SDS011;37894;53.172;6.598;2023-08-31T00:26:14;8.35;;;3.60;;
51852;SDS011;37894;53.172;6.598;2023-08-31T00:28:40;8.82;;;4.13;;
51852;SDS011;37894;53.172;6.598;2023-08-31T00:31:10;5.75;;;3.45;;
51852;SDS011;37894;53.172;6.598;2023-08-31T00:33:39;9.85;;;4.13;;
51852;SDS011;37894;53.172;6.598;2023-08-31T00:36:05;7.38;;;4.07;;
51852;SDS011;37894;53.172;6.598;2023-08-31T00:38:30;7.35;;;3.33;;
51852;SDS011;37894;53.172;6.598;2023-08-31T00:40:56;8.75;;;3.97;;
51852;SDS011;37894;53.172;6.598;2023-08-31T00:43:22;6.82;;;3.08;;
51852;SDS011;37894;53.172;6.598;2023-08-31T00:45:49;6.03;;;3.00;;
51852;SDS011;37894;53.172;6.598;2023-08-31T00:48:16;10.85;;;3.70;;
51852;SDS011;37894;53.172;6.598;2023-08-31T00:50:43;8.00;;;3.42;;
51852;SDS011;37894;53.172;6.598;2023-08-31T00:53:12;6.25;;;3.28;;
51852;SDS011;37894;53.172;6.598;2023-08-31T00:55:39;6.88;;;3.55;;
51852;SDS011;37894;53.172;6.598;2023-08-31T00:58:08;8.32;;;3.10;;
51852;SDS011;37894;53.172;6.598;2023-08-31T01:08:52;6.93;;;2.90;;
51852;SDS011;37894;53.172;6.598;2023-08-31T01:11:48;7.35;;;3.30;;
51852;SDS011;37894;53.172;6.598;2023-08-31T01:14:50;7.03;;;3.03;;
51852;SDS011;37894;53.172;6.598;2023-08-31T01:17:29;6.93;;;2.83;;
51852;SDS011;37894;53.172;6.598;2023-08-31T01:19:58;5.90;;;3.17;;
51852;SDS011;37894;53.172;6.598;2023-08-31T01:22:33;6.90;;;2.58;;
51852;SDS011;37894;53.172;6.598;2023-08-31T01:25:08;7.80;;;2.60;;
51852;SDS011;37894;53.172;6.598;2023-08-31T01:27:38;7.25;;;2.47;;
51852;SDS011;37894;53.172;6.598;2023-08-31T01:30:05;8.20;;;2.70;;
51852;SDS011;37894;53.172;6.598;2023-08-31T01:32:31;7.57;;;2.70;;
51852;SDS011;37894;53.172;6.598;2023-08-31T01:34:58;7.10;;;2.45;;
51852;SDS011;37894;53.172;6.598;2023-08-31T01:37:30;8.30;;;2.58;;
51852;SDS011;37894;53.172;6.598;2023-08-31T01:40:09;10.55;;;3.75;;
51852;SDS011;37894;53.172;6.598;2023-08-31T01:42:45;5.75;;;2.80;;
51852;SDS011;37894;53.172;6.598;2023-08-31T01:45:14;5.30;;;2.05;;
51852;SDS011;37894;53.172;6.598;2023-08-31T01:47:44;8.48;;;2.42;;
51852;SDS011;37894;53.172;6.598;2023-08-31T01:50:11;4.80;;;2.10;;
51852;SDS011;37894;53.172;6.598;2023-08-31T01:52:36;5.82;;;2.05;;
51852;SDS011;37894;53.172;6.598;2023-08-31T01:55:02;5.55;;;2.30;;
51852;SDS011;37894;53.172;6.598;2023-08-31T01:57:29;3.78;;;1.95;;
51852;SDS011;37894;53.172;6.598;2023-08-31T01:59:55;4.78;;;2.20;;
51852;SDS011;37894;53.172;6.598;2023-08-31T02:02:20;4.28;;;2.00;;
51852;SDS011;37894;53.172;6.598;2023-08-31T02:04:46;8.38;;;2.58;;
51852;SDS011;37894;53.172;6.598;2023-08-31T02:07:11;7.95;;;2.60;;
51852;SDS011;37894;53.172;6.598;2023-08-31T02:09:37;4.97;;;2.30;;
51852;SDS011;37894;53.172;6.598;2023-08-31T02:12:03;3.17;;;1.90;;
51852;SDS011;37894;53.172;6.598;2023-08-31T02:14:29;6.50;;;2.20;;
51852;SDS011;37894;53.172;6.598;2023-08-31T02:16:55;3.83;;;1.80;;
51852;SDS011;37894;53.172;6.598;2023-08-31T02:19:21;4.13;;;2.03;;
51852;SDS011;37894;53.172;6.598;2023-08-31T02:21:47;5.88;;;2.20;;
51852;SDS011;37894;53.172;6.598;2023-08-31T02:24:13;5.85;;;2.10;;
51852;SDS011;37894;53.172;6.598;2023-08-31T02:26:38;5.10;;;2.08;;
51852;SDS011;37894;53.172;6.598;2023-08-31T02:29:04;4.35;;;2.00;;
51852;SDS011;37894;53.172;6.598;2023-08-31T02:31:30;7.68;;;2.10;;
51852;SDS011;37894;53.172;6.598;2023-08-31T02:33:55;5.28;;;1.73;;
51852;SDS011;37894;53.172;6.598;2023-08-31T02:36:21;4.45;;;2.10;;
51852;SDS011;37894;53.172;6.598;2023-08-31T02:38:47;3.20;;;1.73;;
51852;SDS011;37894;53.172;6.598;2023-08-31T02:41:14;2.50;;;1.48;;
51852;SDS011;37894;53.172;6.598;2023-08-31T02:43:40;7.40;;;2.10;;
51852;SDS011;37894;53.172;6.598;2023-08-31T02:46:06;7.90;;;2.00;;
51852;SDS011;37894;53.172;6.598;2023-08-31T02:48:32;8.77;;;2.10;;
51852;SDS011;37894;53.172;6.598;2023-08-31T02:50:58;4.32;;;1.77;;
51852;SDS011;37894;53.172;6.598;2023-08-31T02:53:29;3.72;;;1.65;;
51852;SDS011;37894;53.172;6.598;2023-08-31T02:55:55;6.18;;;1.77;;
51852;SDS011;37894;53.172;6.598;2023-08-31T02:58:21;3.72;;;1.67;;
51852;SDS011;37894;53.172;6.598;2023-08-31T03:00:47;6.35;;;2.00;;
51852;SDS011;37894;53.172;6.598;2023-08-31T03:03:17;5.78;;;1.92;;
51852;SDS011;37894;53.172;6.598;2023-08-31T03:05:43;4.93;;;1.75;;
51852;SDS011;37894;53.172;6.598;2023-08-31T03:08:09;4.90;;;1.60;;
51852;SDS011;37894;53.172;6.598;2023-08-31T03:10:35;3.03;;;1.65;;
51852;SDS011;37894;53.172;6.598;2023-08-31T03:13:01;4.43;;;1.40;;
51852;SDS011;37894;53.172;6.598;2023-08-31T03:15:27;4.53;;;1.88;;
51852;SDS011;37894;53.172;6.598;2023-08-31T03:17:53;5.32;;;1.63;;
51852;SDS011;37894;53.172;6.598;2023-08-31T03:20:19;5.70;;;1.75;;
51852;SDS011;37894;53.172;6.598;2023-08-31T03:22:45;2.65;;;1.42;;
51852;SDS011;37894;53.172;6.598;2023-08-31T03:25:11;4.63;;;1.60;;
51852;SDS011;37894;53.172;6.598;2023-08-31T03:27:37;3.42;;;1.40;;
51852;SDS011;37894;53.172;6.598;2023-08-31T03:30:02;5.05;;;1.55;;
51852;SDS011;37894;53.172;6.598;2023-08-31T03:32:29;3.40;;;1.75;;
51852;SDS011;37894;53.172;6.598;2023-08-31T03:34:55;6.57;;;1.98;;
51852;SDS011;37894;53.172;6.598;2023-08-31T03:37:20;6.20;;;1.70;;
51852;SDS011;37894;53.172;6.598;2023-08-31T03:39:50;4.63;;;1.98;;
51852;SDS011;37894;53.172;6.598;2023-08-31T03:42:15;4.15;;;1.90;;
51852;SDS011;37894;53.172;6.598;2023-08-31T03:44:41;5.78;;;1.85;;
51852;SDS011;37894;53.172;6.598;2023-08-31T03:47:07;3.78;;;2.00;;
51852;SDS011;37894;53.172;6.598;2023-08-31T03:49:32;5.85;;;1.92;;
51852;SDS011;37894;53.172;6.598;2023-08-31T03:52:00;7.45;;;2.22;;
51852;SDS011;37894;53.172;6.598;2023-08-31T03:54:26;6.20;;;2.05;;
51852;SDS011;37894;53.172;6.598;2023-08-31T03:56:51;4.00;;;2.05;;
51852;SDS011;37894;53.172;6.598;2023-08-31T03:59:17;3.33;;;1.83;;
51852;SDS011;37894;53.172;6.598;2023-08-31T04:01:43;6.15;;;2.22;;
51852;SDS011;37894;53.172;6.598;2023-08-31T04:04:09;4.28;;;2.00;;
51852;SDS011;37894;53.172;6.598;2023-08-31T04:06:35;3.22;;;1.92;;
51852;SDS011;37894;53.172;6.598;2023-08-31T04:09:00;4.10;;;2.13;;
51852;SDS011;37894;53.172;6.598;2023-08-31T04:11:26;5.70;;;2.13;;
51852;SDS011;37894;53.172;6.598;2023-08-31T04:13:52;9.85;;;2.55;;
51852;SDS011;37894;53.172;6.598;2023-08-31T04:16:18;6.30;;;2.53;;
51852;SDS011;37894;53.172;6.598;2023-08-31T04:18:44;3.95;;;2.25;;
51852;SDS011;37894;53.172;6.598;2023-08-31T04:21:16;4.20;;;2.20;;
51852;SDS011;37894;53.172;6.598;2023-08-31T04:23:42;5.60;;;2.38;;
51852;SDS011;37894;53.172;6.598;2023-08-31T04:26:14;5.05;;;2.50;;
51852;SDS011;37894;53.172;6.598;2023-08-31T04:28:42;4.75;;;2.60;;
51852;SDS011;37894;53.172;6.598;2023-08-31T04:31:08;7.85;;;3.33;;
51852;SDS011;37894;53.172;6.598;2023-08-31T04:33:35;9.85;;;3.20;;
51852;SDS011;37894;53.172;6.598;2023-08-31T04:36:01;11.65;;;3.15;;
51852;SDS011;37894;53.172;6.598;2023-08-31T04:38:28;6.90;;;3.60;;
51852;SDS011;37894;53.172;6.598;2023-08-31T04:40:57;6.22;;;3.53;;
51852;SDS011;37894;53.172;6.598;2023-08-31T04:43:23;6.22;;;3.60;;
51852;SDS011;37894;53.172;6.598;2023-08-31T04:45:51;5.28;;;3.65;;
51852;SDS011;37894;53.172;6.598;2023-08-31T04:48:17;11.32;;;4.63;;
51852;SDS011;37894;53.172;6.598;2023-08-31T04:50:42;9.75;;;5.15;;
51852;SDS011;37894;53.172;6.598;2023-08-31T04:53:08;6.97;;;4.60;;
51852;SDS011;37894;53.172;6.598;2023-08-31T04:55:34;11.95;;;5.30;;
51852;SDS011;37894;53.172;6.598;2023-08-31T04:57:59;13.27;;;6.00;;
51852;SDS011;37894;53.172;6.598;2023-08-31T05:00:26;9.05;;;5.88;;
51852;SDS011;37894;53.172;6.598;2023-08-31T05:02:51;11.88;;;6.07;;
51852;SDS011;37894;53.172;6.598;2023-08-31T05:05:17;16.15;;;7.22;;
51852;SDS011;37894;53.172;6.598;2023-08-31T05:07:45;12.15;;;7.10;;
51852;SDS011;37894;53.172;6.598;2023-08-31T05:10:11;11.13;;;7.00;;
51852;SDS011;37894;53.172;6.598;2023-08-31T05:12:37;12.57;;;6.70;;
51852;SDS011;37894;53.172;6.598;2023-08-31T05:15:03;11.90;;;6.75;;
51852;SDS011;37894;53.172;6.598;2023-08-31T05:17:29;12.20;;;7.13;;
51852;SDS011;37894;53.172;6.598;2023-08-31T05:19:56;10.18;;;6.97;;
51852;SDS011;37894;53.172;6.598;2023-08-31T05:22:22;11.15;;;5.68;;
51852;SDS011;37894;53.172;6.598;2023-08-31T05:24:48;13.15;;;6.95;;
51852;SDS011;37894;53.172;6.598;2023-08-31T05:27:13;12.57;;;6.32;;
51852;SDS011;37894;53.172;6.598;2023-08-31T05:29:39;13.73;;;6.55;;
51852;SDS011;37894;53.172;6.598;2023-08-31T05:32:05;12.27;;;6.15;;
51852;SDS011;37894;53.172;6.598;2023-08-31T05:34:31;9.68;;;5.63;;
51852;SDS011;37894;53.172;6.598;2023-08-31T05:36:59;9.43;;;5.88;;
51852;SDS011;37894;53.172;6.598;2023-08-31T05:39:25;9.80;;;5.90;;
51852;SDS011;37894;53.172;6.598;2023-08-31T05:41:51;11.70;;;5.72;;
51852;SDS011;37894;53.172;6.598;2023-08-31T05:44:16;15.20;;;5.72;;
51852;SDS011;37894;53.172;6.598;2023-08-31T05:46:42;8.63;;;5.43;;
51852;SDS011;37894;53.172;6.598;2023-08-31T05:49:08;8.95;;;4.85;;
51852;SDS011;37894;53.172;6.598;2023-08-31T05:51:34;10.30;;;5.55;;
51852;SDS011;37894;53.172;6.598;2023-08-31T05:54:00;14.52;;;6.68;;
51852;SDS011;37894;53.172;6.598;2023-08-31T05:56:26;10.90;;;5.03;;
51852;SDS011;37894;53.172;6.598;2023-08-31T05:58:51;14.13;;;5.40;;
51852;SDS011;37894;53.172;6.598;2023-08-31T06:01:20;15.10;;;5.22;;
51852;SDS011;37894;53.172;6.598;2023-08-31T06:03:47;12.80;;;5.32;;
51852;SDS011;37894;53.172;6.598;2023-08-31T06:06:14;8.13;;;4.70;;
51852;SDS011;37894;53.172;6.598;2023-08-31T06:08:39;8.98;;;5.00;;
51852;SDS011;37894;53.172;6.598;2023-08-31T06:11:07;9.88;;;5.18;;
51852;SDS011;37894;53.172;6.598;2023-08-31T06:13:33;8.32;;;4.55;;
51852;SDS011;37894;53.172;6.598;2023-08-31T06:15:59;13.15;;;5.00;;
51852;SDS011;37894;53.172;6.598;2023-08-31T06:18:25;9.32;;;4.88;;
51852;SDS011;37894;53.172;6.598;2023-08-31T06:20:51;10.82;;;4.40;;
51852;SDS011;37894;53.172;6.598;2023-08-31T06:23:17;8.20;;;4.47;;
51852;SDS011;37894;53.172;6.598;2023-08-31T06:25:42;7.40;;;4.07;;
51852;SDS011;37894;53.172;6.598;2023-08-31T06:28:10;11.90;;;4.38;;
51852;SDS011;37894;53.172;6.598;2023-08-31T06:30:37;10.77;;;4.28;;
51852;SDS011;37894;53.172;6.598;2023-08-31T06:33:03;13.25;;;4.35;;
51852;SDS011;37894;53.172;6.598;2023-08-31T06:35:29;7.07;;;3.47;;
51852;SDS011;37894;53.172;6.598;2023-08-31T06:37:56;12.23;;;3.90;;
51852;SDS011;37894;53.172;6.598;2023-08-31T06:40:22;9.32;;;4.30;;
51852;SDS011;37894;53.172;6.598;2023-08-31T06:42:49;7.05;;;3.67;;
51852;SDS011;37894;53.172;6.598;2023-08-31T06:45:15;10.20;;;3.70;;
51852;SDS011;37894;53.172;6.598;2023-08-31T06:47:40;8.35;;;3.13;;
51852;SDS011;37894;53.172;6.598;2023-08-31T06:50:06;7.97;;;3.50;;
51852;SDS011;37894;53.172;6.598;2023-08-31T06:52:32;9.32;;;3.30;;
51852;SDS011;37894;53.172;6.598;2023-08-31T06:54:59;6.53;;;3.08;;
51852;SDS011;37894;53.172;6.598;2023-08-31T06:57:25;10.20;;;3.00;;
51852;SDS011;37894;53.172;6.598;2023-08-31T06:59:51;5.97;;;2.42;;
51852;SDS011;37894;53.172;6.598;2023-08-31T07:02:17;7.97;;;2.35;;
51852;SDS011;37894;53.172;6.598;2023-08-31T07:04:47;8.52;;;2.70;;
51852;SDS011;37894;53.172;6.598;2023-08-31T07:07:13;7.38;;;2.30;;
51852;SDS011;37894;53.172;6.598;2023-08-31T07:09:42;6.20;;;2.95;;
51852;SDS011;37894;53.172;6.598;2023-08-31T07:12:09;4.45;;;2.05;;
51852;SDS011;37894;53.172;6.598;2023-08-31T07:14:35;8.63;;;2.85;;
51852;SDS011;37894;53.172;6.598;2023-08-31T07:17:01;7.07;;;2.25;;
51852;SDS011;37894;53.172;6.598;2023-08-31T07:19:27;3.88;;;1.75;;
51852;SDS011;37894;53.172;6.598;2023-08-31T07:21:52;6.32;;;2.03;;
51852;SDS011;37894;53.172;6.598;2023-08-31T07:24:22;3.92;;;1.90;;
51852;SDS011;37894;53.172;6.598;2023-08-31T07:26:48;6.82;;;2.10;;
51852;SDS011;37894;53.172;6.598;2023-08-31T07:29:14;5.00;;;1.80;;
51852;SDS011;37894;53.172;6.598;2023-08-31T07:31:39;6.97;;;2.25;;
51852;SDS011;37894;53.172;6.598;2023-08-31T07:34:05;10.82;;;2.10;;
51852;SDS011;37894;53.172;6.598;2023-08-31T07:36:31;5.75;;;1.73;;
51852;SDS011;37894;53.172;6.598;2023-08-31T07:38:57;5.65;;;1.80;;
51852;SDS011;37894;53.172;6.598;2023-08-31T07:41:22;4.95;;;1.60;;
51852;SDS011;37894;53.172;6.598;2023-08-31T07:43:48;5.28;;;1.40;;
51852;SDS011;37894;53.172;6.598;2023-08-31T07:46:14;3.70;;;1.40;;
51852;SDS011;37894;53.172;6.598;2023-08-31T07:48:41;5.13;;;1.38;;
51852;SDS011;37894;53.172;6.598;2023-08-31T07:51:07;3.28;;;1.13;;
51852;SDS011;37894;53.172;6.598;2023-08-31T07:53:33;3.53;;;1.30;;
51852;SDS011;37894;53.172;6.598;2023-08-31T07:55:59;5.50;;;1.30;;
51852;SDS011;37894;53.172;6.598;2023-08-31T07:58:25;3.63;;;1.10;;
51852;SDS011;37894;53.172;6.598;2023-08-31T08:00:54;6.45;;;1.35;;
51852;SDS011;37894;53.172;6.598;2023-08-31T08:03:21;5.10;;;1.17;;
51852;SDS011;37894;53.172;6.598;2023-08-31T08:05:48;4.00;;;1.25;;
51852;SDS011;37894;53.172;6.598;2023-08-31T08:08:14;6.88;;;1.45;;
51852;SDS011;37894;53.172;6.598;2023-08-31T08:10:40;7.45;;;1.20;;
51852;SDS011;37894;53.172;6.598;2023-08-31T08:13:08;3.10;;;1.00;;
51852;SDS011;37894;53.172;6.598;2023-08-31T08:15:34;3.53;;;1.08;;
51852;SDS011;37894;53.172;6.598;2023-08-31T08:17:59;4.43;;;1.15;;
51852;SDS011;37894;53.172;6.598;2023-08-31T08:20:25;6.82;;;1.20;;
51852;SDS011;37894;53.172;6.598;2023-08-31T08:22:51;4.30;;;1.42;;
51852;SDS011;37894;53.172;6.598;2023-08-31T08:25:18;5.13;;;0.93;;
51852;SDS011;37894;53.172;6.598;2023-08-31T08:27:44;5.15;;;0.95;;
51852;SDS011;37894;53.172;6.598;2023-08-31T08:30:10;3.40;;;1.13;;
51852;SDS011;37894;53.172;6.598;2023-08-31T08:32:36;5.38;;;1.20;;
51852;SDS011;37894;53.172;6.598;2023-08-31T08:35:01;5.15;;;0.90;;
51852;SDS011;37894;53.172;6.598;2023-08-31T08:37:27;4.47;;;1.23;;
51852;SDS011;37894;53.172;6.598;2023-08-31T08:39:54;4.78;;;0.90;;
51852;SDS011;37894;53.172;6.598;2023-08-31T08:42:20;2.67;;;0.85;;
51852;SDS011;37894;53.172;6.598;2023-08-31T08:44:49;5.00;;;1.10;;
51852;SDS011;37894;53.172;6.598;2023-08-31T08:47:15;2.80;;;1.05;;
51852;SDS011;37894;53.172;6.598;2023-08-31T08:49:42;3.97;;;0.80;;
51852;SDS011;37894;53.172;6.598;2023-08-31T08:52:08;2.05;;;0.75;;
51852;SDS011;37894;53.172;6.598;2023-08-31T08:54:35;3.50;;;0.90;;
51852;SDS011;37894;53.172;6.598;2023-08-31T08:57:00;3.78;;;0.85;;
51852;SDS011;37894;53.172;6.598;2023-08-31T08:59:28;4.10;;;0.93;;
51852;SDS011;37894;53.172;6.598;2023-08-31T09:01:55;2.58;;;0.68;;
51852;SDS011;37894;53.172;6.598;2023-08-31T09:04:22;2.72;;;1.08;;
51852;SDS011;37894;53.172;6.598;2023-08-31T09:06:47;3.63;;;0.90;;
51852;SDS011;37894;53.172;6.598;2023-08-31T09:09:15;3.47;;;0.88;;
51852;SDS011;37894;53.172;6.598;2023-08-31T09:11:42;3.45;;;0.80;;
51852;SDS011;37894;53.172;6.598;2023-08-31T09:14:20;4.43;;;0.90;;
51852;SDS011;37894;53.172;6.598;2023-08-31T09:16:46;1.73;;;0.80;;
51852;SDS011;37894;53.172;6.598;2023-08-31T09:19:20;3.65;;;1.00;;
51852;SDS011;37894;53.172;6.598;2023-08-31T09:21:47;2.58;;;0.90;;
51852;SDS011;37894;53.172;6.598;2023-08-31T09:24:14;1.70;;;1.00;;
51852;SDS011;37894;53.172;6.598;2023-08-31T09:26:47;2.42;;;1.10;;
51852;SDS011;37894;53.172;6.598;2023-08-31T09:29:13;1.67;;;0.60;;
51852;SDS011;37894;53.172;6.598;2023-08-31T09:31:43;1.48;;;0.60;;
51852;SDS011;37894;53.172;6.598;2023-08-31T09:34:10;3.05;;;0.75;;
51852;SDS011;37894;53.172;6.598;2023-08-31T09:36:36;2.17;;;0.90;;
51852;SDS011;37894;53.172;6.598;2023-08-31T09:39:03;3.22;;;0.70;;
51852;SDS011;37894;53.172;6.598;2023-08-31T09:41:30;1.08;;;0.60;;
51852;SDS011;37894;53.172;6.598;2023-08-31T09:43:56;3.88;;;0.80;;
51852;SDS011;37894;53.172;6.598;2023-08-31T09:46:39;4.78;;;0.70;;
51852;SDS011;37894;53.172;6.598;2023-08-31T09:49:05;3.67;;;1.00;;
51852;SDS011;37894;53.172;6.598;2023-08-31T09:51:31;5.97;;;0.95;;
51852;SDS011;37894;53.172;6.598;2023-08-31T09:54:00;4.45;;;1.15;;
51852;SDS011;37894;53.172;6.598;2023-08-31T09:56:29;3.25;;;0.90;;
51852;SDS011;37894;53.172;6.598;2023-08-31T09:58:58;4.82;;;1.00;;
51852;SDS011;37894;53.172;6.598;2023-08-31T10:01:25;2.30;;;0.80;;
51852;SDS011;37894;53.172;6.598;2023-08-31T10:03:51;6.55;;;1.30;;
51852;SDS011;37894;53.172;6.598;2023-08-31T10:06:17;4.93;;;1.00;;
51852;SDS011;37894;53.172;6.598;2023-08-31T10:08:44;2.78;;;1.23;;
51852;SDS011;37894;53.172;6.598;2023-08-31T10:11:09;2.90;;;1.00;;
51852;SDS011;37894;53.172;6.598;2023-08-31T10:13:38;1.90;;;1.10;;
51852;SDS011;37894;53.172;6.598;2023-08-31T10:16:06;3.50;;;1.13;;
51852;SDS011;37894;53.172;6.598;2023-08-31T10:18:34;4.25;;;1.38;;
51852;SDS011;37894;53.172;6.598;2023-08-31T10:21:01;9.00;;;1.52;;
51852;SDS011;37894;53.172;6.598;2023-08-31T10:23:27;4.63;;;1.20;;
51852;SDS011;37894;53.172;6.598;2023-08-31T10:28:23;4.30;;;1.20;;
51852;SDS011;37894;53.172;6.598;2023-08-31T10:31:02;8.43;;;1.45;;
51852;SDS011;37894;53.172;6.598;2023-08-31T10:33:39;2.53;;;1.15;;
51852;SDS011;37894;53.172;6.598;2023-08-31T10:36:19;4.97;;;1.38;;
51852;SDS011;37894;53.172;6.598;2023-08-31T10:38:46;4.55;;;1.00;;
51852;SDS011;37894;53.172;6.598;2023-08-31T10:41:25;5.55;;;1.27;;
51852;SDS011;37894;53.172;6.598;2023-08-31T10:43:56;7.68;;;1.27;;
51852;SDS011;37894;53.172;6.598;2023-08-31T10:46:35;2.85;;;1.08;;
51852;SDS011;37894;53.172;6.598;2023-08-31T10:49:14;3.45;;;1.10;;
51852;SDS011;37894;53.172;6.598;2023-08-31T10:51:41;2.97;;;1.00;;
51852;SDS011;37894;53.172;6.598;2023-08-31T10:59:43;3.58;;;1.30;;
51852;SDS011;37894;53.172;6.598;2023-08-31T11:02:09;3.15;;;1.15;;
51852;SDS011;37894;53.172;6.598;2023-08-31T11:04:54;3.95;;;1.23;;
51852;SDS011;37894;53.172;6.598;2023-08-31T11:07:28;3.00;;;1.30;;
51852;SDS011;37894;53.172;6.598;2023-08-31T11:10:06;3.10;;;1.33;;
51852;SDS011;37894;53.172;6.598;2023-08-31T11:12:36;3.65;;;1.25;;
51852;SDS011;37894;53.172;6.598;2023-08-31T11:15:03;5.25;;;1.40;;
51852;SDS011;37894;53.172;6.598;2023-08-31T11:17:29;2.42;;;0.98;;
51852;SDS011;37894;53.172;6.598;2023-08-31T11:19:57;13.55;;;2.15;;
51852;SDS011;37894;53.172;6.598;2023-08-31T11:22:23;3.05;;;0.90;;
51852;SDS011;37894;53.172;6.598;2023-08-31T11:24:49;3.33;;;1.10;;
51852;SDS011;37894;53.172;6.598;2023-08-31T11:27:18;2.47;;;0.80;;
51852;SDS011;37894;53.172;6.598;2023-08-31T11:29:45;5.78;;;1.20;;
51852;SDS011;37894;53.172;6.598;2023-08-31T11:32:11;4.18;;;1.00;;
51852;SDS011;37894;53.172;6.598;2023-08-31T11:34:44;2.97;;;0.93;;
51852;SDS011;37894;53.172;6.598;2023-08-31T11:37:11;3.03;;;0.90;;
51852;SDS011;37894;53.172;6.598;2023-08-31T11:39:41;3.22;;;1.30;;
51852;SDS011;37894;53.172;6.598;2023-08-31T11:42:13;3.35;;;1.20;;
51852;SDS011;37894;53.172;6.598;2023-08-31T11:44:39;3.28;;;1.02;;
51852;SDS011;37894;53.172;6.598;2023-08-31T11:47:05;3.33;;;1.20;;
51852;SDS011;37894;53.172;6.598;2023-08-31T11:49:31;3.42;;;1.23;;
51852;SDS011;37894;53.172;6.598;2023-08-31T11:51:57;3.83;;;0.88;;
51852;SDS011;37894;53.172;6.598;2023-08-31T11:54:24;3.03;;;1.40;;
51852;SDS011;37894;53.172;6.598;2023-08-31T11:56:50;3.13;;;0.80;;
51852;SDS011;37894;53.172;6.598;2023-08-31T11:59:17;2.78;;;0.88;;
51852;SDS011;37894;53.172;6.598;2023-08-31T12:01:45;3.25;;;1.00;;
51852;SDS011;37894;53.172;6.598;2023-08-31T12:04:13;3.58;;;1.00;;
51852;SDS011;37894;53.172;6.598;2023-08-31T12:06:40;4.72;;;1.33;;
51852;SDS011;37894;53.172;6.598;2023-08-31T12:09:09;4.45;;;1.35;;
51852;SDS011;37894;53.172;6.598;2023-08-31T12:11:35;4.47;;;1.30;;
51852;SDS011;37894;53.172;6.598;2023-08-31T12:14:02;3.97;;;1.33;;
51852;SDS011;37894;53.172;6.598;2023-08-31T12:16:35;3.13;;;1.25;;
51852;SDS011;37894;53.172;6.598;2023-08-31T12:19:02;4.25;;;1.20;;
51852;SDS011;37894;53.172;6.598;2023-08-31T12:21:31;2.15;;;0.90;;
51852;SDS011;37894;53.172;6.598;2023-08-31T12:23:57;4.03;;;1.00;;
51852;SDS011;37894;53.172;6.598;2023-08-31T12:26:24;3.88;;;1.15;;
51852;SDS011;37894;53.172;6.598;2023-08-31T12:28:50;5.65;;;0.98;;
51852;SDS011;37894;53.172;6.598;2023-08-31T12:31:16;3.50;;;1.00;;
51852;SDS011;37894;53.172;6.598;2023-08-31T12:33:41;5.07;;;1.00;;
51852;SDS011;37894;53.172;6.598;2023-08-31T12:36:07;2.60;;;0.93;;
51852;SDS011;37894;53.172;6.598;2023-08-31T12:38:33;2.78;;;1.10;;
51852;SDS011;37894;53.172;6.598;2023-08-31T12:40:58;2.70;;;0.80;;
51852;SDS011;37894;53.172;6.598;2023-08-31T12:43:24;2.58;;;0.88;;
51852;SDS011;37894;53.172;6.598;2023-08-31T12:45:50;5.45;;;1.60;;
51852;SDS011;37894;53.172;6.598;2023-08-31T12:48:16;9.15;;;1.90;;
51852;SDS011;37894;53.172;6.598;2023-08-31T12:50:43;7.90;;;1.30;;
51852;SDS011;37894;53.172;6.598;2023-08-31T12:53:09;4.32;;;0.93;;
51852;SDS011;37894;53.172;6.598;2023-08-31T12:55:34;5.55;;;0.93;;
51852;SDS011;37894;53.172;6.598;2023-08-31T12:58:00;3.42;;;0.80;;
51852;SDS011;37894;53.172;6.598;2023-08-31T13:00:26;2.72;;;0.85;;
51852;SDS011;37894;53.172;6.598;2023-08-31T13:02:52;5.00;;;1.17;;
51852;SDS011;37894;53.172;6.598;2023-08-31T13:05:18;4.40;;;0.90;;
51852;SDS011;37894;53.172;6.598;2023-08-31T13:07:45;3.25;;;0.80;;
51852;SDS011;37894;53.172;6.598;2023-08-31T13:10:10;2.88;;;1.45;;
51852;SDS011;37894;53.172;6.598;2023-08-31T13:12:36;3.40;;;0.80;;
51852;SDS011;37894;53.172;6.598;2023-08-31T13:15:02;2.83;;;0.88;;
51852;SDS011;37894;53.172;6.598;2023-08-31T13:17:28;4.13;;;0.90;;
51852;SDS011;37894;53.172;6.598;2023-08-31T13:19:57;3.53;;;0.80;;
51852;SDS011;37894;53.172;6.598;2023-08-31T13:22:23;2.83;;;1.00;;
51852;SDS011;37894;53.172;6.598;2023-08-31T13:24:50;3.30;;;1.13;;
51852;SDS011;37894;53.172;6.598;2023-08-31T13:27:16;3.65;;;1.10;;
51852;SDS011;37894;53.172;6.598;2023-08-31T13:29:42;4.05;;;1.20;;
51852;SDS011;37894;53.172;6.598;2023-08-31T13:32:08;3.13;;;1.10;;
51852;SDS011;37894;53.172;6.598;2023-08-31T13:34:35;3.63;;;1.05;;
51852;SDS011;37894;53.172;6.598;2023-08-31T13:37:02;3.97;;;1.02;;
51852;SDS011;37894;53.172;6.598;2023-08-31T13:39:30;4.75;;;1.00;;
51852;SDS011;37894;53.172;6.598;2023-08-31T13:41:56;2.50;;;0.85;;
51852;SDS011;37894;53.172;6.598;2023-08-31T13:44:22;3.65;;;1.30;;
51852;SDS011;37894;53.172;6.598;2023-08-31T13:46:48;3.80;;;1.20;;
51852;SDS011;37894;53.172;6.598;2023-08-31T13:49:14;3.97;;;1.10;;
51852;SDS011;37894;53.172;6.598;2023-08-31T13:51:40;6.07;;;1.10;;
51852;SDS011;37894;53.172;6.598;2023-08-31T13:54:06;3.35;;;1.60;;
51852;SDS011;37894;53.172;6.598;2023-08-31T13:56:33;5.90;;;1.13;;
51852;SDS011;37894;53.172;6.598;2023-08-31T13:58:59;2.75;;;1.00;;
51852;SDS011;37894;53.172;6.598;2023-08-31T14:01:25;5.60;;;1.15;;
51852;SDS011;37894;53.172;6.598;2023-08-31T14:03:51;4.28;;;1.10;;
51852;SDS011;37894;53.172;6.598;2023-08-31T14:06:17;3.30;;;1.27;;
51852;SDS011;37894;53.172;6.598;2023-08-31T14:08:42;4.75;;;1.40;;
51852;SDS011;37894;53.172;6.598;2023-08-31T14:11:08;2.95;;;0.90;;
51852;SDS011;37894;53.172;6.598;2023-08-31T14:13:34;3.05;;;0.98;;
51852;SDS011;37894;53.172;6.598;2023-08-31T14:16:00;1.80;;;0.80;;
51852;SDS011;37894;53.172;6.598;2023-08-31T14:18:26;2.80;;;1.00;;
51852;SDS011;37894;53.172;6.598;2023-08-31T14:20:54;2.88;;;0.90;;
51852;SDS011;37894;53.172;6.598;2023-08-31T14:23:20;3.70;;;1.13;;
51852;SDS011;37894;53.172;6.598;2023-08-31T14:25:45;4.82;;;1.35;;
51852;SDS011;37894;53.172;6.598;2023-08-31T14:28:11;3.97;;;0.90;;
51852;SDS011;37894;53.172;6.598;2023-08-31T14:30:37;3.08;;;0.93;;
51852;SDS011;37894;53.172;6.598;2023-08-31T14:33:03;4.65;;;1.10;;
51852;SDS011;37894;53.172;6.598;2023-08-31T14:35:30;3.67;;;1.10;;
51852;SDS011;37894;53.172;6.598;2023-08-31T14:37:56;3.25;;;0.88;;
51852;SDS011;37894;53.172;6.598;2023-08-31T14:40:23;3.83;;;1.55;;
51852;SDS011;37894;53.172;6.598;2023-08-31T14:42:49;3.72;;;0.88;;
51852;SDS011;37894;53.172;6.598;2023-08-31T14:45:14;4.80;;;1.08;;
51852;SDS011;37894;53.172;6.598;2023-08-31T14:47:40;3.30;;;1.08;;
51852;SDS011;37894;53.172;6.598;2023-08-31T14:50:06;5.93;;;1.20;;
51852;SDS011;37894;53.172;6.598;2023-08-31T14:52:32;3.90;;;1.10;;
51852;SDS011;37894;53.172;6.598;2023-08-31T14:54:59;5.28;;;1.10;;
51852;SDS011;37894;53.172;6.598;2023-08-31T14:57:25;4.38;;;1.17;;
51852;SDS011;37894;53.172;6.598;2023-08-31T14:59:51;3.83;;;0.88;;
51852;SDS011;37894;53.172;6.598;2023-08-31T15:02:21;3.30;;;0.98;;